Flight Track Log - Related Links

Times and Time Zones

All times are in EDT time to prevent confusion due to time zone crossing. See the SWA3587 flight status page for this flight to view local times or setup timezone preferences in your user account.

Time Position Orientation Groundspeed Altitude Reporting Facility
EDT Latitude Longitude Course Direction KTS MPH feet Rate Location/Type
Fri 09:11:41 PM 33.4333 -112.0333 248° West 188 216 1,600  Level Phoenix TRACON
Fri 09:13:12 PM 33.4000 -112.1333 248° West 237 273 4,800 2,607 Climbing Phoenix TRACON
Fri 09:14:06 PM 33.3667 -112.1667 220° Southwest 237 273 7,900 2,944 Climbing Phoenix TRACON
Fri 09:15:00 PM 33.3167 -112.1167 140° Southeast 290 334 10,100 2,333 Climbing Phoenix TRACON
Fri 09:16:12 PM 33.3472 -112.0078 71° East 332 382 12,800 2,752 Climbing Albuquerque Center
Fri 09:17:13 PM 33.3747 -111.8950 74° East 353 406 16,200 3,220 Climbing Albuquerque Center
Fri 09:18:15 PM 33.4106 -111.7503 73° East 380 437 19,400 2,878 Climbing Albuquerque Center
Fri 09:19:16 PM 33.4428 -111.6225 73° East 400 460 22,100 2,732 Climbing Albuquerque Center
Fri 09:20:18 PM 33.4756 -111.4903 73° East 414 476 25,000 2,390 Climbing Albuquerque Center
Fri 09:21:19 PM 33.5053 -111.3558 75° East 420 483 27,000 1,721 Climbing Albuquerque Center
Fri 09:22:20 PM 33.5219 -111.2100 82° East 442 509 28,500 1,463 Climbing Albuquerque Center
Fri 09:23:22 PM 33.5403 -111.0569 82° East 462 532 30,000 1,415 Climbing Albuquerque Center
Fri 09:24:23 PM 33.5592 -110.8961 82° East 483 556 31,400 1,707 Climbing Albuquerque Center
Fri 09:25:25 PM 33.6200 -110.7081 69° East 497 572 33,500 1,756 Climbing Albuquerque Center
Fri 09:26:26 PM 33.6719 -110.5511 68° East 504 580 35,000 1,180 Climbing Albuquerque Center
Fri 09:27:27 PM 33.7208 -110.3914 70° East 509 586 35,900 927 Climbing Albuquerque Center
Fri 09:28:29 PM 33.7700 -110.2256 70° East 515 593 36,900 1,415 Climbing Albuquerque Center
Fri 09:29:30 PM 33.8242 -110.0600 68° East 525 604 38,800 1,033 Climbing Albuquerque Center
Fri 09:30:31 PM 33.8758 -109.9014 69° East 516 594 39,000 98 Climbing Albuquerque Center
Fri 09:31:33 PM 33.9244 -109.7436 70° East 506 582 39,000  Level Albuquerque Center
Fri 09:32:34 PM 33.9744 -109.5861 69° East 503 579 39,000  Level Albuquerque Center
Fri 09:33:35 PM 34.0247 -109.4275 69° East 505 581 39,000  Level Albuquerque Center
Fri 09:34:37 PM 34.0742 -109.2692 69° East 504 580 39,000  Level Albuquerque Center
Fri 09:35:38 PM 34.1308 -109.0864 69° East 504 580 39,000  Level Albuquerque Center
Fri 09:36:40 PM 34.1769 -108.9356 70° East 504 580 39,000  Level Albuquerque Center
Fri 09:37:41 PM 34.2303 -108.7617 70° East 503 579 39,000  Level Albuquerque Center
Fri 09:38:42 PM 34.2792 -108.6019 70° East 504 580 39,000  Level Albuquerque Center
Fri 09:39:44 PM 34.3264 -108.4461 70° East 502 578 39,000  Level Albuquerque Center
Fri 09:40:45 PM 34.3731 -108.2869 70° East 501 577 39,000  Level Albuquerque Center
Fri 09:41:46 PM 34.4172 -108.1283 71° East 501 577 39,000  Level Albuquerque Center
Fri 09:42:47 PM 34.4619 -107.9689 71° East 505 581 39,000  Level Albuquerque Center
Fri 09:43:49 PM 34.5231 -107.8161 64° Northeast 509 586 39,000  Level Albuquerque Center
Fri 09:44:50 PM 34.5978 -107.6317 64° Northeast 508 585 39,000  Level Albuquerque Center
Fri 09:45:51 PM 34.6631 -107.4769 63° Northeast 508 585 39,000  Level Albuquerque Center
Fri 09:46:52 PM 34.7244 -107.3236 64° Northeast 507 583 39,000  Level Albuquerque Center
Fri 09:47:54 PM 34.7853 -107.1697 64° Northeast 505 581 39,000  Level Albuquerque Center
Fri 09:48:55 PM 34.8503 -107.0072 64° Northeast 499 574 39,000  Level Albuquerque Center
Fri 09:49:56 PM 34.9128 -106.8508 64° Northeast 504 580 39,000  Level Albuquerque Center
Fri 09:50:57 PM 34.9744 -106.6964 64° Northeast 506 582 39,000  Level Albuquerque Center
Fri 09:51:58 PM 35.0356 -106.5417 64° Northeast 507 583 39,000  Level Albuquerque Center
Fri 09:53:00 PM 35.0953 -106.3811 66° East 516 594 39,000  Level Albuquerque Center
Fri 09:54:01 PM 35.1561 -106.2267 64° Northeast 512 589 39,000  Level Albuquerque Center
Fri 09:55:02 PM 35.2153 -106.0750 64° Northeast 502 578 39,000  Level Albuquerque Center
Fri 09:56:03 PM 35.2750 -105.9206 65° Northeast 505 581 39,000  Level Albuquerque Center
Fri 09:57:04 PM 35.3347 -105.7667 65° Northeast 506 582 39,000  Level Albuquerque Center
Fri 09:58:06 PM 35.4042 -105.5828 65° Northeast 501 577 39,000  Level Albuquerque Center
Fri 09:59:07 PM 35.4631 -105.4322 64° Northeast 501 577 39,000  Level Albuquerque Center
Fri 10:00:08 PM 35.5233 -105.2747 65° Northeast 503 579 39,000  Level Albuquerque Center
Fri 10:01:09 PM 35.5833 -105.1167 65° Northeast 504 580 39,000  Level Albuquerque Center
Fri 10:02:10 PM 35.6428 -104.9575 65° Northeast 506 582 39,000  Level Albuquerque Center
Fri 10:03:11 PM 35.7014 -104.8000 65° Northeast 503 579 39,000  Level Albuquerque Center
Fri 10:04:13 PM 35.7619 -104.6383 65° Northeast 507 583 39,000  Level Albuquerque Center
Fri 10:05:14 PM 35.8219 -104.4758 65° Northeast 512 589 39,000  Level Albuquerque Center
Fri 10:06:15 PM 35.8817 -104.3139 65° Northeast 513 590 39,000  Level Albuquerque Center
Fri 10:07:16 PM 35.9411 -104.1531 65° Northeast 510 587 39,000  Level Albuquerque Center
Fri 10:08:17 PM 35.9986 -103.9919 66° East 508 585 39,000 49 Level Albuquerque Center
Fri 10:09:18 PM 36.0575 -103.8311 66° East 508 585 39,100  Climbing Albuquerque Center
Fri 10:10:19 PM 36.1153 -103.6706 66° East 506 582 39,000 -49 Descending Albuquerque Center
Fri 10:11:20 PM 36.1728 -103.5117 66° East 503 579 39,000  Level Albuquerque Center
Fri 10:12:22 PM 36.2300 -103.3528 66° East 500 575 39,000  Level Albuquerque Center
Fri 10:13:23 PM 36.2861 -103.1933 66° East 501 577 39,000  Level Albuquerque Center
Fri 10:14:24 PM 36.3422 -103.0328 67° East 502 578 39,000  Level Albuquerque Center
Fri 10:15:25 PM 36.4056 -102.8533 66° East 500 575 39,000  Level Albuquerque Center
Fri 10:16:26 PM 36.4606 -102.6936 67° East 501 577 39,000  Level Albuquerque Center
Fri 10:17:28 PM 36.5164 -102.5350 66° East 501 577 39,000  Level Albuquerque Center
Fri 10:18:29 PM 36.5728 -102.3742 66° East 505 581 39,000  Level Albuquerque Center
Fri 10:19:30 PM 36.6272 -102.2153 67° East 501 577 39,000  Level Albuquerque Center
Fri 10:20:31 PM 36.6808 -102.0567 67° East 505 581 39,000  Level Albuquerque Center
Fri 10:21:32 PM 36.7419 -101.8781 67° East 504 580 39,000  Level Albuquerque Center
Fri 10:22:33 PM 36.7942 -101.7231 67° East 506 582 39,000  Level Albuquerque Center
Fri 10:23:35 PM 36.8464 -101.5678 67° East 508 585 39,000  Level Albuquerque Center
Fri 10:24:36 PM 36.9175 -101.3933 63° Northeast 507 583 39,000  Level Kansas City Center
Fri 10:25:37 PM 36.9800 -101.2458 62° Northeast 504 580 39,000  Level Kansas City Center
Fri 10:26:38 PM 37.0531 -101.0733 62° Northeast 505 581 39,000  Level Kansas City Center
Fri 10:27:40 PM 37.1139 -100.9256 63° Northeast 503 579 39,000  Level Kansas City Center
Fri 10:28:41 PM 37.1742 -100.7764 63° Northeast 504 580 39,000  Level Kansas City Center
Fri 10:29:42 PM 37.2456 -100.6042 62° Northeast 504 580 39,000  Level Kansas City Center
Fri 10:30:43 PM 37.3072 -100.4550 63° Northeast 506 582 39,000  Level Kansas City Center
Fri 10:31:45 PM 37.3781 -100.2808 63° Northeast 505 581 39,000  Level Kansas City Center
Fri 10:32:46 PM 37.4389 -100.1306 63° Northeast 506 582 39,000  Level Kansas City Center
Fri 10:33:47 PM 37.5106 -99.9547 63° Northeast 507 583 39,000  Level Kansas City Center
Fri 10:34:48 PM 37.5700 -99.8039 64° Northeast 505 581 39,000  Level Kansas City Center
Fri 10:35:50 PM 37.6311 -99.6519 63° Northeast 508 585 39,000  Level Kansas City Center
Fri 10:36:51 PM 37.7008 -99.4753 63° Northeast 506 582 39,000  Level Kansas City Center
Fri 10:37:52 PM 37.7553 -99.3397 63° Northeast 507 583 39,000  Level Kansas City Center
Fri 10:38:53 PM 37.8300 -99.1486 64° Northeast 506 582 39,000  Level Kansas City Center
Fri 10:39:55 PM 37.8922 -98.9875 64° Northeast 507 583 39,000  Level Kansas City Center
Fri 10:40:56 PM 37.9558 -98.8286 63° Northeast 506 582 39,000  Level Kansas City Center
Fri 10:41:57 PM 38.0178 -98.6661 64° Northeast 509 586 39,000  Level Kansas City Center
Fri 10:42:58 PM 38.0808 -98.5053 63° Northeast 508 585 39,000  Level Kansas City Center
Fri 10:44:00 PM 38.1422 -98.3428 64° Northeast 508 585 39,000  Level Kansas City Center
Fri 10:45:01 PM 38.2056 -98.1803 64° Northeast 508 585 39,000  Level Kansas City Center
Fri 10:46:02 PM 38.2675 -98.0167 64° Northeast 507 583 39,000  Level Kansas City Center
Fri 10:47:03 PM 38.3289 -97.8525 64° Northeast 508 585 39,000  Level Kansas City Center
Fri 10:48:05 PM 38.3894 -97.6886 65° Northeast 509 586 39,000  Level Kansas City Center
Fri 10:49:06 PM 38.4503 -97.5244 65° Northeast 509 586 39,000  Level Kansas City Center
Fri 10:50:07 PM 38.5111 -97.3597 65° Northeast 515 593 39,000  Level Kansas City Center
Fri 10:51:08 PM 38.5708 -97.1953 65° Northeast 510 587 39,000  Level Kansas City Center
Fri 10:52:09 PM 38.6311 -97.0314 65° Northeast 510 587 39,000  Level Kansas City Center
Fri 10:53:10 PM 38.6908 -96.8664 65° Northeast 511 588 39,000  Level Kansas City Center
Fri 10:54:12 PM 38.7669 -96.6714 63° Northeast 513 590 39,000  Level Kansas City Center
Fri 10:55:13 PM 38.8244 -96.5061 66° East 508 585 39,000  Level Kansas City Center
Fri 10:56:14 PM 38.8861 -96.3358 65° Northeast 508 585 39,000  Level Kansas City Center
Fri 10:57:15 PM 38.9406 -96.1775 66° East 509 586 39,000  Level Kansas City Center
Fri 10:58:16 PM 38.9950 -96.0169 66° East 509 586 39,000  Level Kansas City Center
Fri 10:59:17 PM 39.0603 -95.8317 66° East 509 586 39,000  Level Kansas City Center
Fri 11:00:18 PM 39.1164 -95.6736 65° Northeast 508 585 39,000  Level Kansas City Center
Fri 11:01:20 PM 39.1725 -95.5122 66° East 512 589 39,000  Level Kansas City Center
Fri 11:02:21 PM 39.2361 -95.3244 66° East 516 594 39,000  Level Kansas City Center
Fri 11:03:22 PM 39.2981 -95.1447 66° East 511 588 39,000  Level Kansas City Center
Fri 11:04:23 PM 39.3519 -94.9894 66° East 513 590 39,000  Level Kansas City Center
Fri 11:05:24 PM 39.4072 -94.8308 66° East 507 583 39,000  Level Kansas City Center
Fri 11:06:25 PM 39.4711 -94.6403 66° East 518 596 39,000  Level Kansas City Center
Fri 11:07:27 PM 39.5253 -94.4783 67° East 513 590 39,000  Level Kansas City Center
Fri 11:08:28 PM 39.5878 -94.2886 67° East 513 590 39,000  Level Kansas City Center
Fri 11:09:29 PM 39.6414 -94.1264 67° East 513 590 39,000  Level Kansas City Center
Fri 11:10:30 PM 39.6950 -93.9644 67° East 511 588 39,000  Level Kansas City Center
Fri 11:11:31 PM 39.7567 -93.7742 67° East 510 587 39,000  Level Kansas City Center
Fri 11:12:32 PM 39.8072 -93.6153 67° East 516 594 39,000  Level Kansas City Center
Fri 11:13:34 PM 39.8636 -93.4458 67° East 515 593 39,000  Level Kansas City Center
Fri 11:14:35 PM 39.9178 -93.2767 67° East 513 590 39,000  Level Kansas City Center
Fri 11:15:36 PM 39.9722 -93.1056 67° East 515 593 39,000  Level Kansas City Center
Fri 11:16:37 PM 40.0361 -92.9019 68° East 514 592 39,000  Level Kansas City Center
Fri 11:17:38 PM 40.0892 -92.7319 68° East 512 589 39,000  Level Kansas City Center
Fri 11:19:41 PM 40.1800 -92.3644 72° East 506 582 39,000  Level Kansas City Center
Fri 11:20:42 PM 40.2125 -92.2111 74° East 513 590 39,000  Level Kansas City Center
Fri 11:21:43 PM 40.2558 -91.9983 75° East 512 589 39,000  Level Kansas City Center
Fri 11:22:44 PM 40.2911 -91.8208 75° East 510 587 39,000  Level Kansas City Center
Fri 11:23:45 PM 40.3269 -91.6422 75° East 512 589 39,000  Level Kansas City Center
Fri 11:24:47 PM 40.3625 -91.4625 75° East 513 590 39,000  Level Kansas City Center
Fri 11:25:48 PM 40.3972 -91.2836 76° East 512 589 39,000  Level Kansas City Center
Fri 11:26:49 PM 40.4375 -91.0797 75° East 508 585 39,000  Level Kansas City Center
Fri 11:27:50 PM 40.4833 -90.9047 71° East 506 582 39,000  Level Kansas City Center
Fri 11:28:51 PM 40.5386 -90.7331 67° East 507 583 39,000  Level Kansas City Center
Fri 11:29:52 PM 40.5908 -90.5606 68° East 507 583 39,000  Level Kansas City Center
Fri 11:30:54 PM 40.6439 -90.3861 68° East 511 588 39,000  Level Kansas City Center
Fri 11:31:55 PM 40.6956 -90.2122 69° East 510 587 39,000  Level Kansas City Center
Fri 11:32:56 PM 40.7481 -90.0375 68° East 515 593 39,000  Level Kansas City Center
Fri 11:33:57 PM 40.8053 -89.8533 68° East 519 597 39,000  Level Kansas City Center
Fri 11:34:58 PM 40.8567 -89.6675 70° East 526 605 39,000  Level Kansas City Center
Fri 11:36:17 PM 40.9167 -89.4567 69° East 514 592 39,000  Level Chicago Center
Fri 11:37:18 PM 40.9681 -89.2792 69° East 515 593 39,000  Level Chicago Center
Fri 11:38:19 PM 41.0225 -89.0869 69° East 510 587 39,000  Level Chicago Center
Fri 11:39:20 PM 41.0719 -88.9100 70° East 516 594 39,000  Level Chicago Center
Fri 11:40:21 PM 41.1214 -88.7319 70° East 523 602 39,000  Level Chicago Center
Fri 11:41:22 PM 41.1800 -88.5244 69° East 517 595 39,000  Level Chicago Center
Fri 11:42:23 PM 41.2294 -88.3461 70° East 510 587 39,000 -393 Level Chicago Center
Fri 11:43:24 PM 41.2775 -88.1708 70° East 505 581 38,200 -836 Descending Chicago Center
Fri 11:44:25 PM 41.3222 -87.9944 71° East 517 595 37,300 -885 Descending Chicago Center
Fri 11:45:26 PM 41.3731 -87.8186 69° East 527 606 36,400 -885 Descending Chicago Center
Fri 11:46:27 PM 41.4225 -87.6419 69° East 519 597 35,500 -1,122 Descending Chicago Center
Fri 11:47:29 PM 41.4797 -87.4283 70° East 519 597 34,100 -1,415 Descending Chicago Center
Fri 11:48:30 PM 41.5264 -87.2508 71° East 512 589 32,600 -1,426 Descending Chicago Center
Fri 11:49:31 PM 41.5711 -87.0783 71° East 499 574 31,200 -787 Descending Chicago Center
Fri 11:50:32 PM 41.6172 -86.9058 70° East 497 572 31,000 -98 Descending Chicago Center
Fri 11:51:33 PM 41.6622 -86.7328 71° East 497 572 31,000  Level Chicago Center
Fri 11:52:34 PM 41.7047 -86.5731 70° East 495 570 31,000  Level Chicago Center
Fri 11:53:34 PM 41.7486 -86.3969 71° East 497 572 31,000 -50 Level Chicago Center
Fri 11:54:35 PM 41.7958 -86.1831 73° East 499 574 30,900 -984 Descending Chicago Center
Fri 11:55:36 PM 41.8283 -86.0017 76° East 500 575 29,000 -1,918 Descending Chicago Center
Fri 11:56:37 PM 41.8642 -85.8158 75° East 509 586 27,000 -1,770 Descending Chicago Center
Fri 11:57:38 PM 41.8986 -85.6328 76° East 505 581 25,400 -1,512 Descending Chicago Center
Fri 11:58:40 PM 41.9311 -85.4572 76° East 488 562 23,900 -1,475 Descending Chicago Center
Fri 11:59:40 PM 41.9631 -85.2836 76° East 477 549 22,400 -1,339 Descending Chicago Center
Sat 12:00:41 AM 41.9939 -85.1153 76° East 462 532 21,200 -1,140 Descending Chicago Center
Sat 12:01:41 AM 42.0203 -84.9694 76° East 467 537 20,100 -1,438 Descending Chicago Center
Sat 12:02:42 AM 42.0544 -84.7753 77° East 450 518 18,300 -1,623 Descending Chicago Center
Sat 12:03:43 AM 42.0831 -84.6167 76° East 442 509 16,800 -1,623 Descending Chicago Center
Sat 12:04:44 AM 42.1100 -84.4608 77° East 434 499 15,000 -1,868 Descending Chicago Center
Sat 12:05:29 AM 42.1297 -84.3436 77° East 416 479 13,500 -1,925 Descending Cleveland Center
Sat 12:06:30 AM 42.1553 -84.1939 77° East 400 460 11,600 -1,279 Descending Cleveland Center
Sat 12:07:31 AM 42.1844 -84.0636 73° East 347 399 10,900 -992 Descending Cleveland Center
Sat 12:08:31 AM 42.2108 -83.9503 73° East 320 368 9,600 -1,388 Descending Cleveland Center
Sat 12:09:32 AM 42.2369 -83.8367 73° East 310 357 8,100 -1,488 Descending Cleveland Center
Sat 12:10:32 AM 42.2589 -83.7228 75° East 305 351 6,600 -1,339 Descending Cleveland Center
Sat 12:11:33 AM 42.2825 -83.6172 73° East 289 333 5,400 -1,279 Descending Cleveland Center
Sat 12:12:34 AM 42.3061 -83.5172 72° East 277 319 4,000 -694 Descending Cleveland Center
Sat 12:13:34 AM 42.3228 -83.4281 76° East 233 268 4,000  Level Cleveland Center
Sat 12:14:35 AM 42.3417 -83.3419 73° East 237 273 4,000 -50 Level Cleveland Center
Sat 12:15:35 AM 42.3456 -83.2633 86° East 197 227 3,900 -472 Descending Cleveland Center
Sat 12:16:42 AM 42.2994 -83.2725 188° South 148 170 3,000 -1,078 Descending Cleveland Center
Sat 12:17:43 AM 42.2653 -83.3050 215° Southwest 146 168 1,600 -1,041 Descending Cleveland Center
Sat 12:18:43 AM 42.2317 -83.3258 205° Southwest 136 157 900 -700 Descending Cleveland Center

Login

Don't have an account? Register now (free) for customized features, flight alerts, and more!